Time;durP1;ratioP1;P1;durP2;ratioP2;P2;SDS_P1;SDS_P2;PMS_P1;PMS_P2;Temp;Humidity;BMP_temperature;BMP_pressure;BME280_temperature;BME280_humidity;BME280_pressure;Samples;Min_cycle;Max_cycle;Signal;HPM_P1;HPM_P2
2022/01/25 00:26:39;;;;;;;45.38;22.30;;;;;;;4.27;100.00;99354.66;5031979;28;20574;-81
2022/01/25 00:29:13;;;;;;;47.28;22.42;;;;;;;4.31;100.00;99357.69;5029085;28;20049;-82
2022/01/25 00:31:41;;;;;;;42.88;21.15;;;;;;;4.16;100.00;99355.44;5029863;28;20049;-81
2022/01/25 00:34:08;;;;;;;45.47;22.25;;;;;;;4.20;100.00;99363.84;5031430;28;20107;-81
2022/01/25 00:36:35;;;;;;;45.63;22.00;;;;;;;4.25;100.00;99359.44;5041033;28;20053;-80
2022/01/25 00:39:04;;;;;;;44.78;21.33;;;;;;;4.19;100.00;99359.53;5038940;28;20103;-80
2022/01/25 00:41:30;;;;;;;47.70;23.17;;;;;;;4.09;100.00;99359.28;5037680;28;20050;-82
2022/01/25 00:44:00;;;;;;;45.47;22.88;;;;;;;4.05;100.00;99358.91;5033319;28;20478;-81
2022/01/25 00:46:26;;;;;;;48.63;22.40;;;;;;;4.03;100.00;99357.50;5031023;28;20136;-80
2022/01/25 00:48:58;;;;;;;46.75;22.75;;;;;;;3.98;100.00;99341.31;5029430;28;20054;-80
2022/01/25 00:54:09;;;;;;;46.30;22.35;;;;;;;4.03;100.00;99352.97;5031204;28;20049;-81
2022/01/25 00:56:40;;;;;;;43.92;21.75;;;;;;;4.18;100.00;99341.84;5031660;28;20053;-80
2022/01/25 00:59:10;;;;;;;45.63;22.40;;;;;;;4.19;100.00;99338.09;5029361;28;20045;-82
2022/01/25 01:01:38;;;;;;;45.65;20.75;;;;;;;4.15;100.00;99335.06;5043557;28;20061;-80
2022/01/25 01:04:06;;;;;;;40.60;20.20;;;;;;;4.11;100.00;99349.13;5051557;28;20132;-80
2022/01/25 01:06:34;;;;;;;35.40;17.80;;;;;;;4.02;100.00;99343.31;5052408;28;20103;-81
2022/01/25 01:09:01;;;;;;;39.78;18.75;;;;;;;4.11;100.00;99335.75;5051149;28;20473;-80
2022/01/25 01:11:40;;;;;;;39.25;19.30;;;;;;;4.03;100.00;99330.72;5050592;28;20053;-80
2022/01/25 01:30:46;;;;;;;37.17;17.67;;;;;;;4.01;100.00;99328.28;5054294;28;20067;-82
2022/01/25 01:36:13;;;;;;;37.90;18.45;;;;;;;3.92;100.00;99329.69;5054094;28;20106;-81
2022/01/25 01:44:03;;;;;;;33.70;16.40;;;;;;;3.96;100.00;99328.16;5054256;28;20053;-81
2022/01/25 01:49:00;;;;;;;33.58;16.35;;;;;;;3.96;100.00;99321.97;5054082;28;20055;-80
2022/01/25 01:51:33;;;;;;;35.40;16.73;;;;;;;4.03;100.00;99330.72;5053968;28;20080;-82
2022/01/25 01:54:03;;;;;;;38.60;17.27;;;;;;;4.02;100.00;99332.59;5054434;28;20049;-81
2022/01/25 01:56:30;;;;;;;37.08;17.23;;;;;;;3.93;100.00;99314.41;5044537;28;20053;-81
2022/01/25 01:58:58;;;;;;;38.40;17.30;;;;;;;3.98;100.00;99327.91;5033492;28;20498;-80
2022/01/25 02:01:32;;;;;;;37.60;16.98;;;;;;;3.92;100.00;99340.41;5033020;28;20107;-81
2022/01/25 02:04:03;;;;;;;39.53;17.88;;;;;;;3.93;100.00;99330.47;5033778;28;20124;-83
2022/01/25 02:06:30;;;;;;;36.97;16.95;;;;;;;3.89;100.00;99329.31;5038854;28;20072;-81
2022/01/25 02:08:57;;;;;;;33.33;15.35;;;;;;;3.83;100.00;99336.41;5036143;28;20045;-81
2022/01/25 02:11:24;;;;;;;36.15;16.30;;;;;;;3.84;100.00;99330.00;5046857;28;20049;-82
2022/01/25 02:13:52;;;;;;;38.50;15.65;;;;;;;3.91;100.00;99317.31;5049554;28;20257;-81
2022/01/25 02:24:37;;;;;;;29.45;13.30;;;;;;;3.93;100.00;99312.53;5070244;28;20049;-80
2022/01/25 02:27:05;;;;;;;22.10;11.95;;;;;;;3.81;100.00;99314.38;5063533;28;20056;-80
2022/01/25 02:29:32;;;;;;;25.27;12.02;;;;;;;3.68;100.00;99304.69;5054661;28;20045;-81
2022/01/25 02:31:59;;;;;;;23.63;10.85;;;;;;;3.67;100.00;99305.72;5052061;28;20052;-81
2022/01/25 02:34:26;;;;;;;24.42;11.43;;;;;;;3.68;100.00;99314.59;5053452;28;20057;-80
2022/01/25 02:37:00;;;;;;;22.52;11.43;;;;;;;3.79;100.00;99314.59;5052859;28;20056;-80
2022/01/25 02:39:28;;;;;;;23.25;10.90;;;;;;;3.79;100.00;99313.81;5050850;28;20086;-81
2022/01/25 02:41:54;;;;;;;20.38;9.68;;;;;;;3.68;100.00;99309.25;5052481;28;20052;-80
2022/01/25 02:44:27;;;;;;;18.52;9.45;;;;;;;3.67;100.00;99303.06;5052580;28;20084;-80
2022/01/25 02:49:34;;;;;;;18.33;9.57;;;;;;;3.67;100.00;99303.06;5052905;28;20103;-83
2022/01/25 02:52:03;;;;;;;21.15;10.63;;;;;;;3.85;100.00;99298.66;5054060;28;20162;-82
2022/01/25 02:54:31;;;;;;;20.40;10.20;;;;;;;3.80;100.00;99291.31;5052679;28;20136;-80
2022/01/25 02:56:58;;;;;;;15.70;9.25;;;;;;;4.10;100.00;99296.63;5052664;28;20045;-82
2022/01/25 02:59:24;;;;;;;19.80;9.48;;;;;;;3.97;100.00;99273.53;5052470;28;20065;-82
2022/01/25 03:01:51;;;;;;;19.85;9.32;;;;;;;3.98;100.00;99285.03;5053746;28;20052;-82
2022/01/25 03:04:20;;;;;;;22.63;10.48;;;;;;;4.18;100.00;99277.50;5053118;28;20306;-81
2022/01/25 03:06:47;;;;;;;21.55;11.00;;;;;;;3.99;100.00;99281.34;5053311;28;20060;-81
2022/01/25 03:09:15;;;;;;;23.25;10.90;;;;;;;4.00;100.00;99253.50;5050961;28;20099;-80
2022/01/25 03:11:45;;;;;;;25.23;11.23;;;;;;;4.19;100.00;99263.84;5052673;28;20060;-79
2022/01/25 03:14:12;;;;;;;24.30;11.40;;;;;;;4.17;100.00;99259.78;5057613;28;20474;-82
2022/01/25 03:16:44;;;;;;;28.38;11.93;;;;;;;3.82;100.00;99258.97;5052540;28;20507;-81
2022/01/25 03:21:55;;;;;;;36.58;14.43;;;;;;;4.18;100.00;99246.13;5054539;28;20091;-82
2022/01/25 03:24:21;;;;;;;34.45;14.68;;;;;;;4.15;100.00;99241.28;5053621;28;20454;-82
2022/01/25 03:26:48;;;;;;;37.97;15.13;;;;;;;4.24;100.00;99241.72;5054041;28;20045;-81
2022/01/25 03:29:14;;;;;;;36.25;16.05;;;;;;;4.30;100.00;99248.81;5050916;28;20090;-80
2022/01/25 03:31:41;;;;;;;43.05;17.13;;;;;;;4.41;100.00;99246.09;5051555;28;20053;-81
2022/01/25 03:34:08;;;;;;;44.33;17.17;;;;;;;4.26;100.00;99228.88;5051608;28;20139;-82
2022/01/25 03:36:34;;;;;;;44.50;17.73;;;;;;;4.36;100.00;99237.97;5052807;28;20111;-82
2022/01/25 03:39:05;;;;;;;47.45;18.05;;;;;;;4.41;100.00;99239.97;5051543;28;20550;-82
2022/01/25 03:41:33;;;;;;;46.47;18.33;;;;;;;4.20;100.00;99240.56;5051064;28;20494;-81
2022/01/25 03:44:00;;;;;;;44.70;18.55;;;;;;;4.28;100.00;99235.63;5051253;28;20045;-82
2022/01/25 03:51:46;;;;;;;40.83;16.13;;;;;;;4.36;100.00;99231.81;5052668;28;20049;-81
2022/01/25 03:54:13;;;;;;;39.50;17.48;;;;;;;4.32;100.00;99241.34;5051907;28;20056;-80
2022/01/25 03:56:40;;;;;;;37.35;16.67;;;;;;;4.32;100.00;99230.63;5051006;28;20087;-80
2022/01/25 03:59:07;;;;;;;35.80;16.27;;;;;;;4.27;100.00;99233.19;5049644;28;20045;-81
2022/01/25 04:01:35;;;;;;;39.45;17.17;;;;;;;4.40;100.00;99222.22;5050266;28;20049;-80
2022/01/25 04:04:07;;;;;;;35.85;16.52;;;;;;;4.33;100.00;99230.41;5049791;28;20132;-81
2022/01/25 04:06:36;;;;;;;32.42;14.95;;;;;;;4.17;100.00;99232.97;5051859;28;20048;-80
2022/01/25 04:09:05;;;;;;;35.75;16.00;;;;;;;4.44;100.00;99230.63;5050667;28;20095;-82
2022/01/25 04:11:32;;;;;;;34.47;15.48;;;;;;;4.31;100.00;99239.75;5050612;28;20452;-82
2022/01/25 04:13:59;;;;;;;31.90;14.60;;;;;;;4.13;100.00;99229.94;5050277;28;20088;-82
2022/01/25 04:16:34;;;;;;;43.15;16.83;;;;;;;4.12;100.00;99198.84;5051033;28;20071;-81
2022/01/25 04:19:09;;;;;;;;;;;;;;;4.10;100.00;99226.94;5052442;28;20045;-82
2022/01/25 04:26:51;;;;;;;36.88;15.73;;;;;;;4.00;100.00;99232.06;5052970;28;20088;-82
2022/01/25 04:29:21;;;;;;;41.17;17.42;;;;;;;4.17;100.00;99215.03;5057806;28;20124;-81
2022/01/25 04:31:48;;;;;;;38.30;16.38;;;;;;;4.14;100.00;99202.09;5059179;28;20057;-79
2022/01/25 04:50:58;;;;;;;35.20;15.55;;;;;;;4.13;100.00;99199.66;5040135;28;20041;-81
2022/01/25 04:53:14;;;;;;;40.03;16.75;;;;;;;4.04;100.00;99191.16;5044131;28;20045;-81
2022/01/25 04:55:58;;;;;;;41.95;16.77;;;;;;;3.94;100.00;99190.94;5059679;28;20084;-81
2022/01/25 04:58:30;;;;;;;40.85;18.00;;;;;;;3.93;100.00;99193.84;5051263;28;20110;-83
2022/01/25 05:00:57;;;;;;;38.65;16.55;;;;;;;3.75;100.00;99192.09;5051893;28;20076;-82
2022/01/25 05:03:32;;;;;;;47.55;18.08;;;;;;;3.76;100.00;99196.41;5052044;28;20057;-82
2022/01/25 05:06:07;;;;;;;28.10;12.53;;;;;;;3.96;100.00;99196.88;5036866;28;20076;-82
2022/01/25 05:08:42;;;;;;;36.33;14.98;;;;;;;3.88;100.00;99210.63;5053363;28;20106;-80
2022/01/25 05:11:21;;;;;;;51.65;20.02;;;;;;;3.68;100.00;99196.75;5054363;28;20080;-83
2022/01/25 05:16:47;;;;;;;46.93;19.17;;;;;;;3.83;100.00;99182.91;5052688;28;20567;-82
2022/01/25 05:24:37;;;;;;;48.22;19.70;;;;;;;3.57;100.00;99208.25;5061894;28;20135;-83
2022/01/25 05:27:04;;;;;;;52.90;20.85;;;;;;;3.65;100.00;99213.28;5061133;28;20509;-81
2022/01/25 05:29:31;;;;;;;52.42;20.25;;;;;;;3.68;100.00;99194.91;5053126;28;20053;-81
2022/01/25 05:31:58;;;;;;;47.22;19.90;;;;;;;3.77;100.00;99211.41;5052740;28;20110;-79
2022/01/25 05:34:26;;;;;;;49.53;20.70;;;;;;;3.91;100.00;99204.81;5053555;28;20079;-80
2022/01/25 05:36:53;;;;;;;46.00;20.80;;;;;;;3.91;100.00;99212.00;5055582;28;20059;-80
2022/01/25 05:39:25;;;;;;;44.70;19.52;;;;;;;3.82;100.00;99216.91;5053575;28;20425;-80
2022/01/25 05:42:13;;;;;;;46.28;20.80;;;;;;;3.70;100.00;99226.78;5052309;28;20572;-82
2022/01/25 05:47:14;;;;;;;43.78;19.75;;;;;;;3.74;100.00;99217.28;5054261;28;20052;-81
2022/01/25 05:49:46;;;;;;;48.33;20.02;;;;;;;3.62;100.00;99209.22;5053710;28;20056;-83
2022/01/25 05:52:13;;;;;;;48.50;20.55;;;;;;;3.67;100.00;99224.56;5054581;28;20053;-81
2022/01/25 05:54:40;;;;;;;47.58;19.45;;;;;;;3.72;100.00;99212.13;5053995;28;20102;-82
2022/01/25 05:57:07;;;;;;;45.08;19.17;;;;;;;3.80;100.00;99221.69;5053206;28;20053;-82
2022/01/25 05:59:35;;;;;;;50.90;20.45;;;;;;;3.69;100.00;99217.16;5051851;28;20045;-82
2022/01/25 06:02:01;;;;;;;51.22;20.90;;;;;;;3.81;100.00;99234.03;5043629;28;20049;-82
2022/01/25 06:04:28;;;;;;;49.85;20.90;;;;;;;3.78;100.00;99229.13;5041727;28;20053;-82
2022/01/25 06:06:55;;;;;;;51.10;21.02;;;;;;;3.75;100.00;99238.44;5042678;28;20072;-81
2022/01/25 06:09:25;;;;;;;46.33;20.50;;;;;;;3.75;100.00;99222.38;5039913;28;20144;-80
2022/01/25 06:11:53;;;;;;;46.88;20.45;;;;;;;3.55;100.00;99227.25;5033072;28;20103;-83
2022/01/25 06:14:21;;;;;;;46.25;19.33;;;;;;;3.63;100.00;99242.97;5033327;28;20053;-80
2022/01/25 06:16:47;;;;;;;43.47;18.77;;;;;;;3.58;100.00;99240.19;5031859;28;20768;-81
2022/01/25 06:19:14;;;;;;;44.92;19.52;;;;;;;3.74;100.00;99231.44;5031546;28;20050;-81
2022/01/25 06:21:40;;;;;;;52.58;21.48;;;;;;;3.73;100.00;99256.63;5033304;28;20413;-81
2022/01/25 06:24:07;;;;;;;45.40;19.83;;;;;;;3.87;100.00;99237.66;5032132;28;20054;-81
2022/01/25 06:26:33;;;;;;;43.90;18.83;;;;;;;3.62;100.00;99227.13;5041652;28;20338;-81
2022/01/25 06:29:03;;;;;;;42.00;18.00;;;;;;;3.67;100.00;99238.78;5049614;28;20108;-80
2022/01/25 06:31:32;;;;;;;46.67;18.85;;;;;;;3.66;100.00;99231.81;5049051;28;20056;-79
2022/01/25 06:34:00;;;;;;;46.92;17.38;;;;;;;3.71;100.00;99242.66;5041190;28;20064;-78
2022/01/25 06:36:27;;;;;;;43.10;17.75;;;;;;;3.73;100.00;99243.22;5049989;28;20045;-81
2022/01/25 06:38:53;;;;;;;41.83;18.70;;;;;;;3.64;100.00;99241.09;5046091;28;20079;-81
2022/01/25 06:41:25;;;;;;;52.60;18.67;;;;;;;3.68;100.00;99247.63;5049915;28;20508;-81
2022/01/25 06:43:52;;;;;;;41.38;18.10;;;;;;;3.87;100.00;99233.13;5052935;28;20531;-81
2022/01/25 06:46:19;;;;;;;41.20;17.30;;;;;;;3.93;100.00;99242.06;5052420;28;20135;-81
2022/01/25 06:48:46;;;;;;;40.83;18.20;;;;;;;3.96;100.00;99236.25;5054504;28;20053;-80
2022/01/25 06:51:13;;;;;;;39.58;17.50;;;;;;;3.82;100.00;99246.34;5053481;28;20037;-80
2022/01/25 06:53:40;;;;;;;38.78;17.48;;;;;;;3.65;100.00;99248.91;5054061;28;20070;-83
2022/01/25 06:56:06;;;;;;;40.17;17.55;;;;;;;3.72;100.00;99248.78;5054387;28;20079;-81
2022/01/25 06:58:33;;;;;;;42.45;17.50;;;;;;;3.81;100.00;99244.75;5051901;28;20060;-82
2022/01/25 07:01:00;;;;;;;41.53;18.05;;;;;;;3.71;100.00;99252.53;5044021;28;20088;-81
2022/01/25 07:03:27;;;;;;;34.80;16.88;;;;;;;3.65;100.00;99240.88;5043945;28;20053;-80
2022/01/25 07:05:54;;;;;;;37.35;17.02;;;;;;;3.69;100.00;99246.59;5045288;28;20041;-81
2022/01/25 07:08:20;;;;;;;40.28;17.73;;;;;;;3.79;100.00;99258.34;5044609;28;20076;-80
2022/01/25 07:10:51;;;;;;;44.42;17.60;;;;;;;3.66;100.00;99261.28;5042170;28;20045;-79
2022/01/25 07:13:18;;;;;;;47.20;17.50;;;;;;;3.71;100.00;99250.69;5049576;28;20071;-81
2022/01/25 07:15:44;;;;;;;44.80;17.65;;;;;;;3.71;100.00;99239.97;5052663;28;20053;-82
2022/01/25 07:18:11;;;;;;;41.90;18.33;;;;;;;3.91;100.00;99257.56;5053253;28;20075;-81
2022/01/25 07:20:37;;;;;;;42.95;18.02;;;;;;;3.71;100.00;99256.03;5054376;28;20073;-81
2022/01/25 07:23:09;;;;;;;50.13;18.10;;;;;;;3.81;100.00;99255.47;5054963;28;20098;-82
2022/01/25 07:25:35;;;;;;;41.78;18.67;;;;;;;3.65;100.00;99262.31;5052967;28;20048;-81
2022/01/25 07:28:02;;;;;;;47.08;20.13;;;;;;;3.67;100.00;99259.38;5052408;28;20044;-80
2022/01/25 07:30:29;;;;;;;44.75;19.30;;;;;;;3.69;100.00;99257.31;5053073;28;20079;-82
2022/01/25 07:32:55;;;;;;;43.15;19.70;;;;;;;3.72;100.00;99251.47;5052915;28;20106;-79
2022/01/25 07:35:25;;;;;;;46.35;20.00;;;;;;;3.72;100.00;99254.97;5053831;28;20049;-81
2022/01/25 07:37:51;;;;;;;46.90;20.58;;;;;;;3.71;100.00;99245.31;5055462;28;20473;-80
2022/01/25 07:40:20;;;;;;;46.08;20.60;;;;;;;3.91;100.00;99241.47;5056545;28;20056;-80
2022/01/25 07:42:51;;;;;;;47.97;20.10;;;;;;;3.94;100.00;99243.69;5059655;28;20056;-80
2022/01/25 07:45:17;;;;;;;44.72;20.70;;;;;;;4.02;100.00;99246.03;5057960;28;20067;-80
2022/01/25 07:47:44;;;;;;;46.05;19.85;;;;;;;4.01;100.00;99249.75;5057053;28;20049;-81
2022/01/25 07:50:20;;;;;;;47.88;20.98;;;;;;;3.88;100.00;99242.75;5055092;28;20072;-79
2022/01/25 07:52:47;;;;;;;45.10;19.35;;;;;;;4.09;100.00;99254.78;5049299;28;20045;-78
2022/01/25 07:55:13;;;;;;;43.75;19.88;;;;;;;4.30;100.00;99260.38;5042328;28;20082;-82
2022/01/25 07:57:40;;;;;;;47.38;21.63;;;;;;;4.34;100.00;99256.16;5060934;28;20083;-81
2022/01/25 08:00:07;;;;;;;51.58;21.88;;;;;;;4.46;100.00;99258.84;5054324;28;20049;-81
2022/01/25 08:02:34;;;;;;;50.22;22.73;;;;;;;4.40;100.00;99254.41;5052303;28;20106;-82
2022/01/25 08:05:00;;;;;;;51.67;21.42;;;;;;;4.17;100.00;99252.56;5038856;28;20053;-80
2022/01/25 08:07:34;;;;;;;49.78;22.23;;;;;;;4.19;100.00;99253.13;5040907;28;20049;-82
2022/01/25 08:10:03;;;;;;;53.10;20.70;;;;;;;4.14;100.00;99257.56;5042645;28;20048;-80
2022/01/25 08:12:40;;;;;;;45.95;20.83;;;;;;;3.95;100.00;99251.50;5052415;28;20132;-81
2022/01/25 08:15:24;;;;;;;46.78;20.95;;;;;;;4.09;100.00;99238.69;5048674;28;20049;-83
2022/01/25 08:17:50;;;;;;;53.35;20.50;;;;;;;4.03;100.00;99245.78;5051099;28;20053;-81
2022/01/25 08:20:17;;;;;;;50.83;22.48;;;;;;;4.00;100.00;99248.94;5052219;28;20056;-81
2022/01/25 08:22:49;;;;;;;50.25;22.05;;;;;;;4.18;100.00;99245.34;5058812;28;20052;-81
2022/01/25 08:25:17;;;;;;;47.40;21.55;;;;;;;4.00;100.00;99254.28;5066780;28;20045;-82
2022/01/25 08:27:47;;;;;;;47.75;20.58;;;;;;;4.10;100.00;99240.34;5058548;28;20049;-82
2022/01/25 08:30:17;;;;;;;50.92;21.50;;;;;;;4.17;100.00;99243.69;5054179;28;20236;-81
2022/01/25 08:32:44;;;;;;;48.58;22.55;;;;;;;4.36;100.00;99258.63;5055432;28;20179;-81
2022/01/25 08:35:13;;;;;;;48.88;23.17;;;;;;;4.44;100.00;99249.41;5053937;28;20049;-81
2022/01/25 08:37:45;;;;;;;53.53;23.65;;;;;;;4.53;100.00;99247.97;5055158;28;20068;-82
2022/01/25 08:40:14;;;;;;;55.60;24.10;;;;;;;4.40;100.00;99257.91;5052728;28;20041;-80
2022/01/25 08:42:48;;;;;;;52.08;24.48;;;;;;;4.19;100.00;99250.47;5055470;28;20052;-80
2022/01/25 08:45:16;;;;;;;51.90;23.23;;;;;;;4.13;100.00;99243.34;5054903;28;20052;-82
2022/01/25 08:47:45;;;;;;;53.30;23.38;;;;;;;4.05;100.00;99251.72;5052424;28;20072;-82
2022/01/25 08:50:14;;;;;;;56.13;23.92;;;;;;;4.02;100.00;99243.34;5049515;28;20060;-82
2022/01/25 08:52:48;;;;;;;49.72;23.10;;;;;;;4.12;100.00;99239.06;5039614;28;20049;-80
2022/01/25 08:55:29;;;;;;;55.58;24.42;;;;;;;4.19;100.00;99250.47;5041912;28;20556;-83
2022/01/25 08:57:57;;;;;;;48.88;23.05;;;;;;;4.07;100.00;99255.00;5045133;28;20398;-80
2022/01/25 09:00:32;;;;;;;51.10;22.85;;;;;;;4.08;100.00;99256.63;5051521;28;20045;-79
2022/01/25 09:03:02;;;;;;;53.20;22.35;;;;;;;4.00;100.00;99248.94;5055012;28;20048;-80
2022/01/25 09:05:29;;;;;;;53.38;22.27;;;;;;;3.93;100.00;99252.78;5053289;28;20087;-82
2022/01/25 09:07:57;;;;;;;52.88;22.20;;;;;;;3.93;100.00;99240.19;5051901;28;20083;-78
2022/01/25 09:10:25;;;;;;;55.63;23.98;;;;;;;3.93;100.00;99245.56;5052145;28;20052;-80
2022/01/25 09:12:52;;;;;;;51.78;22.90;;;;;;;3.96;100.00;99245.09;5050785;28;20136;-80
2022/01/25 09:15:20;;;;;;;61.80;23.58;;;;;;;4.06;100.00;99236.47;5052364;28;20053;-80
2022/01/25 09:17:47;;;;;;;53.17;23.20;;;;;;;4.10;100.00;99240.34;5048085;28;20579;-80
2022/01/25 09:20:14;;;;;;;54.40;23.02;;;;;;;3.95;100.00;99246.13;5047156;28;20041;-80
2022/01/25 09:22:41;;;;;;;54.17;23.60;;;;;;;3.99;100.00;99244.63;5050198;28;20540;-81
2022/01/25 09:25:27;;;;;;;53.60;22.38;;;;;;;4.14;100.00;99249.53;5052278;28;20052;-80
2022/01/25 09:27:54;;;;;;;53.42;22.63;;;;;;;4.15;100.00;99249.31;5042594;28;20052;-80
2022/01/25 09:30:20;;;;;;;48.40;23.05;;;;;;;4.13;100.00;99267.47;5039353;28;20041;-80
2022/01/25 09:32:47;;;;;;;55.28;23.42;;;;;;;4.25;100.00;99262.13;5047463;28;20048;-82
2022/01/25 09:35:14;;;;;;;54.80;23.50;;;;;;;4.25;100.00;99251.38;5043520;28;20086;-79
2022/01/25 09:37:41;;;;;;;50.67;23.02;;;;;;;4.16;100.00;99239.38;5038801;28;20049;-81
2022/01/25 09:40:09;;;;;;;53.95;23.02;;;;;;;4.06;100.00;99250.69;5039209;28;20045;-81
2022/01/25 09:42:37;;;;;;;53.22;23.50;;;;;;;4.28;100.00;99261.66;5044611;28;20049;-81
2022/01/25 09:45:05;;;;;;;53.40;24.02;;;;;;;4.35;100.00;99248.94;5039652;28;20095;-82
2022/01/25 09:47:32;;;;;;;57.38;24.25;;;;;;;4.39;100.00;99258.94;5041507;28;20056;-82
2022/01/25 09:49:58;;;;;;;54.63;23.40;;;;;;;4.59;100.00;99261.25;5034795;28;20045;-78
2022/01/25 09:52:27;;;;;;;54.10;24.23;;;;;;;4.28;100.00;99258.97;5036371;28;20686;-80
2022/01/25 09:54:59;;;;;;;52.63;22.70;;;;;;;4.35;100.00;99251.63;5040887;28;20037;-81
2022/01/25 09:57:26;;;;;;;53.55;23.73;;;;;;;4.22;100.00;99268.75;5036195;28;20076;-80
2022/01/25 09:59:56;;;;;;;50.00;23.83;;;;;;;4.24;100.00;99258.59;5034583;28;20041;-80
2022/01/25 10:02:59;;;;;;;51.38;22.15;;;;;;;4.49;100.00;99262.91;5037128;28;20493;-81
2022/01/25 10:05:35;;;;;;;54.67;24.58;;;;;;;4.47;100.00;99268.50;5054335;28;20072;-81
2022/01/25 10:08:10;;;;;;;54.05;23.02;;;;;;;4.27;100.00;99266.19;5041883;28;20045;-80
2022/01/25 10:10:40;;;;;;;57.42;23.90;;;;;;;4.43;100.00;99259.31;5047191;28;20052;-82
2022/01/25 10:13:08;;;;;;;58.38;23.55;;;;;;;4.37;100.00;99260.22;5050709;28;20049;-80
2022/01/25 10:15:35;;;;;;;53.58;23.75;;;;;;;4.13;100.00;99259.41;5038426;28;20053;-81
2022/01/25 10:18:12;;;;;;;52.58;23.85;;;;;;;4.44;100.00;99257.44;5041088;28;20136;-79
2022/01/25 10:20:42;;;;;;;55.35;24.35;;;;;;;4.40;100.00;99270.50;5035285;28;20045;-82
2022/01/25 10:23:11;;;;;;;56.78;24.70;;;;;;;4.48;100.00;99261.28;5038286;28;20053;-79
2022/01/25 10:25:41;;;;;;;56.88;25.58;;;;;;;4.51;100.00;99264.31;5046046;28;20049;-81
2022/01/25 10:28:13;;;;;;;48.92;23.23;;;;;;;4.39;100.00;99256.25;5054259;28;20072;-81
2022/01/25 10:30:50;;;;;;;49.42;23.25;;;;;;;4.45;100.00;99243.78;5047071;28;20543;-81
2022/01/25 10:33:17;;;;;;;54.72;24.40;;;;;;;4.47;100.00;99238.16;5032454;28;20058;-80
2022/01/25 10:35:43;;;;;;;56.65;24.80;;;;;;;4.64;100.00;99245.28;5046643;28;20099;-81
2022/01/25 10:38:18;;;;;;;56.35;24.05;;;;;;;4.39;100.00;99245.53;5054199;28;20079;-80
2022/01/25 10:40:53;;;;;;;57.80;24.30;;;;;;;4.48;100.00;99237.13;5059668;28;20071;-80
2022/01/25 10:43:22;;;;;;;;;;;;;;;4.41;100.00;99245.31;5052304;28;20053;-79
2022/01/25 10:46:22;;;;;;;45.30;19.63;;;;;;;4.21;100.00;99226.91;5044331;28;20024;-81
2022/01/25 10:49:01;;;;;;;40.92;18.13;;;;;;;4.18;100.00;99229.25;5045428;28;20041;-78
2022/01/25 10:51:30;;;;;;;42.95;16.95;;;;;;;4.25;100.00;99236.13;5054070;28;20049;-79
2022/01/25 10:54:10;;;;;;;46.38;18.38;;;;;;;4.18;100.00;99234.63;5055212;28;20057;-80
2022/01/25 10:56:44;;;;;;;42.90;18.40;;;;;;;4.16;100.00;99234.84;5048627;28;20056;-81
2022/01/25 10:59:18;;;;;;;49.60;20.45;;;;;;;4.12;100.00;99222.16;5047360;28;20057;-81
2022/01/25 11:01:54;;;;;;;51.42;20.60;;;;;;;4.33;100.00;99232.28;5055870;28;20112;-81
2022/01/25 11:04:25;;;;;;;50.22;20.45;;;;;;;4.34;100.00;99221.31;5059292;28;20079;-79
2022/01/25 11:06:59;;;;;;;53.45;21.38;;;;;;;4.33;100.00;99205.47;5055732;28;20146;-81
2022/01/25 11:09:34;;;;;;;49.90;21.30;;;;;;;4.32;100.00;99212.69;5053402;28;20493;-80
2022/01/25 11:12:01;;;;;;;51.95;22.02;;;;;;;4.31;100.00;99215.63;5054506;28;20052;-80
2022/01/25 11:17:13;;;;;;;42.55;19.85;;;;;;;4.46;100.00;99221.28;5050308;28;20049;-80
2022/01/25 11:19:41;;;;;;;44.90;20.80;;;;;;;4.43;100.00;99210.22;5034419;28;20053;-79
2022/01/25 11:22:17;;;;;;;43.63;20.42;;;;;;;4.60;100.00;99209.22;5036300;28;20049;-79
2022/01/25 11:24:44;;;;;;;;;;;;;;;4.71;100.00;99211.06;5038751;28;20322;-81
2022/01/25 11:27:11;;;;;;;43.22;21.13;;;;;;;4.57;100.00;99198.97;5042330;28;19931;-80
2022/01/25 11:29:41;;;;;;;42.80;20.55;;;;;;;4.33;100.00;99203.59;5034330;28;20083;-80
2022/01/25 11:32:12;;;;;;;50.22;21.50;;;;;;;4.38;100.00;99192.16;5043170;28;20044;-80
2022/01/25 11:34:40;;;;;;;44.97;20.75;;;;;;;4.35;100.00;99192.63;5044094;28;20064;-80
2022/01/25 11:37:08;;;;;;;45.10;20.10;;;;;;;4.21;100.00;99202.78;5044087;28;20049;-78
2022/01/25 11:39:40;;;;;;;43.17;19.27;;;;;;;4.48;100.00;99187.00;5040039;28;20049;-82
2022/01/25 11:42:23;;;;;;;42.63;18.33;;;;;;;4.19;100.00;99188.81;5042852;28;20071;-79
2022/01/25 11:44:58;;;;;;;49.47;19.45;;;;;;;4.31;100.00;99204.88;5047637;28;20050;-80
2022/01/25 11:47:35;;;;;;;45.13;20.63;;;;;;;4.55;100.00;99200.25;5043583;28;20045;-80
2022/01/25 11:50:11;;;;;;;45.10;20.15;;;;;;;4.35;100.00;99201.50;5051721;28;20110;-79
2022/01/25 11:52:53;;;;;;;46.83;19.33;;;;;;;4.56;100.00;99192.00;5052810;28;20040;-78
2022/01/25 11:55:26;;;;;;;50.42;19.85;;;;;;;4.65;100.00;99187.88;5043200;28;20057;-79
2022/01/25 11:58:11;;;;;;;45.42;19.77;;;;;;;4.37;100.00;99196.69;5036815;28;20463;-79
2022/01/25 12:00:47;;;;;;;52.78;20.98;;;;;;;4.54;100.00;99202.16;5044909;28;20053;-80
2022/01/25 12:03:21;;;;;;;49.08;20.10;;;;;;;4.65;100.00;99200.47;5041428;28;20049;-80
2022/01/25 12:06:06;;;;;;;49.28;20.52;;;;;;;4.44;100.00;99201.91;5051052;28;20045;-80
2022/01/25 12:11:32;;;;;;;43.78;19.40;;;;;;;4.48;100.00;99213.81;5051676;28;20288;-81
2022/01/25 12:14:26;;;;;;;41.13;18.63;;;;;;;4.40;100.00;99208.81;5049557;28;20076;-81
2022/01/25 12:16:52;;;;;;;40.78;16.35;;;;;;;4.30;100.00;99203.25;5050391;28;20029;-80
2022/01/25 12:19:31;;;;;;;41.13;18.30;;;;;;;4.28;100.00;99206.16;5065756;28;20143;-80
2022/01/25 12:21:59;;;;;;;40.78;17.67;;;;;;;4.29;100.00;99197.06;5069408;28;20764;-80
2022/01/25 12:24:36;;;;;;;39.03;18.05;;;;;;;4.30;100.00;99193.34;5055196;28;20215;-81
2022/01/25 12:29:41;;;;;;;38.95;18.30;;;;;;;4.43;100.00;99200.31;5054874;28;20132;-80
2022/01/25 12:32:25;;;;;;;37.58;17.52;;;;;;;4.33;100.00;99184.84;5055619;28;20045;-80
2022/01/25 12:34:59;;;;;;;35.70;16.58;;;;;;;4.32;100.00;99168.97;5054422;28;20049;-79
2022/01/25 12:37:44;;;;;;;35.22;15.93;;;;;;;4.36;100.00;99180.88;5055520;28;20057;-79
2022/01/25 12:40:24;;;;;;;35.13;16.63;;;;;;;4.34;100.00;99180.25;5052913;28;20079;-81
2022/01/25 12:42:51;;;;;;;36.67;17.15;;;;;;;4.63;100.00;99173.06;5045359;28;20049;-80
2022/01/25 12:45:19;;;;;;;32.92;16.30;;;;;;;4.35;100.00;99163.97;5040049;28;20509;-78
2022/01/25 12:48:17;;;;;;;34.90;16.35;;;;;;;4.39;100.00;99175.00;5048176;28;20630;-79
2022/01/25 12:50:45;;;;;;;35.90;17.52;;;;;;;4.27;100.00;99174.22;5047275;28;20178;-80
2022/01/25 12:53:16;;;;;;;34.33;16.40;;;;;;;4.25;100.00;99169.13;5051315;28;20513;-81
2022/01/25 12:55:46;;;;;;;37.20;16.95;;;;;;;4.31;100.00;99157.44;5045626;28;20041;-81
2022/01/25 12:58:13;;;;;;;36.28;17.08;;;;;;;4.32;100.00;99160.94;5050822;28;20087;-80
2022/01/25 13:00:46;;;;;;;36.83;16.77;;;;;;;4.39;100.00;99164.28;5053256;28;20370;-78
2022/01/25 13:03:16;;;;;;;36.58;17.30;;;;;;;4.15;100.00;99150.16;5051309;28;20072;-81
2022/01/25 13:06:06;;;;;;;45.00;17.48;;;;;;;4.25;100.00;99161.06;5049985;28;20053;-79
2022/01/25 13:08:37;;;;;;;36.75;16.48;;;;;;;4.38;100.00;99142.03;5052926;28;20098;-80
2022/01/25 13:17:15;;;;;;;35.92;16.40;;;;;;;4.30;100.00;99133.56;5052785;28;20076;-79
2022/01/25 13:19:49;;;;;;;31.23;16.15;;;;;;;4.46;100.00;99158.81;5032720;28;20084;-81
2022/01/25 13:22:22;;;;;;;29.33;15.20;;;;;;;4.24;100.00;99151.41;5059599;28;20140;-79
2022/01/25 13:27:52;;;;;;;28.98;14.07;;;;;;;4.14;100.00;99145.00;5058179;28;20102;-82
2022/01/25 13:30:43;;;;;;;23.40;13.23;;;;;;;4.21;100.00;99127.75;5053972;28;20049;-82
2022/01/25 13:33:17;;;;;;;28.60;13.98;;;;;;;4.21;100.00;99129.59;5038900;28;20046;-81
2022/01/25 13:35:52;;;;;;;28.63;14.10;;;;;;;4.12;100.00;99120.31;5055496;28;20459;-80
2022/01/25 13:38:20;;;;;;;32.00;16.15;;;;;;;4.18;100.00;99124.75;5060133;28;20045;-79